PWSweather.com
Personal Weather Stations
Station Observations
SELSTON
Bracken House, Selston NottinghamGB NG16 6AN

Bracken HouseSelston NottinghamGB NG16 6AN

Lat: 53.070642, Lon: -1.2933

Elevation: 426

Station Type: Davis Vantage Pro 2

http://www.selstonweather.info

Latest ConditionsUpdated 11:32:43 AM GMT Sunday, Dec 15, 2019
Currently Today's Max Today's Min Today's Average
Temperature 39.7°F4.3°C 40.7°F4.8°C 36.0°F2.2°C 38.1°F3.4°C
Dew Point 35.6°F2.0°C 39.1°F3.9°C 32.7°F0.4°C 34.9°F1.6°C
Winds 9.0 mph WSW14.5 kmh WSW 21.0 mph -33.8 kmh - - 9.7 mph 15.6 kmh
Wind Gusts 16.0 mph25.7 kmh 28.0 mph45.1 kmh - -
Humidity 85% 94% 84% 88%
Pressure 29.28 in991.5 mb 29.28 in991.5 mb 28.96 in980.7 mb -
Hour Temp Dew Point Humidity Winds Wind Gusts Pressure Precip Precip Rate Daily Precip Total
11:32 AM 39.7°F4.3°C 35.6°F2.0°C 85% 9.0 mph WSW14.5 kmh WSW 16.0 mph25.7 kmh 29.28 in991.5 mb 0.00 in0.0 mm 0.00 in0.0 mm 0.05 in1.3 mm
11:27 AM 39.6°F4.2°C 35.5°F1.9°C 85% 7.0 mph WSW11.3 kmh WSW 16.0 mph25.7 kmh 29.28 in991.5 mb 0.00 in0.0 mm 0.00 in0.0 mm 0.05 in1.3 mm
11:22 AM 39.5°F4.2°C 35.4°F1.9°C 85% 8.0 mph SW12.9 kmh SW 16.0 mph25.7 kmh 29.28 in991.5 mb 0.00 in0.0 mm 0.00 in0.0 mm 0.05 in1.3 mm
11:17 AM 39.3°F4.1°C 35.2°F1.8°C 85% 8.0 mph WSW12.9 kmh WSW 13.0 mph20.9 kmh 29.28 in991.5 mb 0.00 in0.0 mm 0.00 in0.0 mm 0.05 in1.3 mm
11:12 AM 39.4°F4.1°C 35.3°F1.8°C 85% 7.0 mph WSW11.3 kmh WSW 13.0 mph20.9 kmh 29.27 in991.2 mb 0.00 in0.0 mm 0.00 in0.0 mm 0.05 in1.3 mm
11:07 AM 39.4°F4.1°C 35.0°F1.7°C 84% 8.0 mph WSW12.9 kmh WSW 13.0 mph20.9 kmh 29.27 in991.2 mb 0.00 in0.0 mm 0.00 in0.0 mm 0.05 in1.3 mm
11:02 AM 39.5°F4.2°C 35.1°F1.7°C 84% 8.0 mph WSW12.9 kmh WSW 13.0 mph20.9 kmh 29.27 in991.2 mb 0.00 in0.0 mm 0.00 in0.0 mm 0.05 in1.3 mm
10:57 AM 39.7°F4.3°C 35.3°F1.8°C 84% 7.0 mph WSW11.3 kmh WSW 15.0 mph24.1 kmh 29.27 in991.2 mb 0.00 in0.0 mm 0.00 in0.0 mm 0.05 in1.3 mm
10:52 AM 39.7°F4.3°C 35.3°F1.8°C 84% 7.0 mph WSW11.3 kmh WSW 15.0 mph24.1 kmh 29.27 in991.2 mb 0.00 in0.0 mm 0.00 in0.0 mm 0.05 in1.3 mm
10:47 AM 39.9°F4.4°C 35.5°F1.9°C 84% 6.0 mph WSW9.7 kmh WSW 16.0 mph25.7 kmh 29.27 in991.2 mb 0.00 in0.0 mm 0.00 in0.0 mm 0.05 in1.3 mm
10:42 AM 40.0°F4.4°C 35.6°F2.0°C 84% 11.0 mph WSW17.7 kmh WSW 16.0 mph25.7 kmh 29.27 in991.2 mb 0.00 in0.0 mm 0.00 in0.0 mm 0.05 in1.3 mm
10:37 AM 40.0°F4.4°C 35.9°F2.2°C 85% 15.0 mph WSW24.1 kmh WSW 17.0 mph27.4 kmh 29.26 in990.9 mb 0.00 in0.0 mm 0.00 in0.0 mm 0.05 in1.3 mm
10:32 AM 39.9°F4.4°C 35.8°F2.1°C 85% 13.0 mph WSW20.9 kmh WSW 17.0 mph27.4 kmh 29.26 in990.9 mb 0.00 in0.0 mm 0.00 in0.0 mm 0.05 in1.3 mm
10:27 AM 39.8°F4.3°C 35.7°F2.1°C 85% 10.0 mph WSW16.1 kmh WSW 17.0 mph27.4 kmh 29.25 in990.5 mb 0.00 in0.0 mm 0.00 in0.0 mm 0.05 in1.3 mm
10:22 AM 39.7°F4.3°C 35.6°F2.0°C 85% 7.0 mph SW11.3 kmh SW 17.0 mph27.4 kmh 29.25 in990.5 mb 0.00 in0.0 mm 0.00 in0.0 mm 0.05 in1.3 mm
10:17 AM 39.5°F4.2°C 35.4°F1.9°C 85% 13.0 mph SW20.9 kmh SW 17.0 mph27.4 kmh 29.25 in990.5 mb 0.00 in0.0 mm 0.00 in0.0 mm 0.05 in1.3 mm
10:12 AM 39.3°F4.1°C 35.2°F1.8°C 85% 10.0 mph SW16.1 kmh SW 17.0 mph27.4 kmh 29.25 in990.5 mb 0.00 in0.0 mm 0.00 in0.0 mm 0.05 in1.3 mm
10:07 AM 39.2°F4.0°C 35.1°F1.7°C 85% 9.0 mph W14.5 kmh W 16.0 mph25.7 kmh 29.24 in990.2 mb 0.00 in0.0 mm 0.00 in0.0 mm 0.05 in1.3 mm
10:02 AM 39.0°F3.9°C 35.2°F1.8°C 86% 8.0 mph WSW12.9 kmh WSW 16.0 mph25.7 kmh 29.24 in990.2 mb 0.00 in0.0 mm 0.00 in0.0 mm 0.05 in1.3 mm
09:57 AM 38.9°F3.8°C 35.1°F1.7°C 86% 9.0 mph WSW14.5 kmh WSW 16.0 mph25.7 kmh 29.23 in989.8 mb 0.00 in0.0 mm 0.00 in0.0 mm 0.05 in1.3 mm
09:52 AM 38.8°F3.8°C 35.0°F1.7°C 86% 8.0 mph W12.9 kmh W 16.0 mph25.7 kmh 29.23 in989.8 mb 0.00 in0.0 mm 0.00 in0.0 mm 0.05 in1.3 mm
09:47 AM 38.7°F3.7°C 34.9°F1.6°C 86% 6.0 mph WSW9.7 kmh WSW 15.0 mph24.1 kmh 29.23 in989.8 mb 0.00 in0.0 mm 0.00 in0.0 mm 0.05 in1.3 mm
09:42 AM 38.6°F3.7°C 34.8°F1.6°C 86% 11.0 mph WSW17.7 kmh WSW 15.0 mph24.1 kmh 29.23 in989.8 mb 0.00 in0.0 mm 0.00 in0.0 mm 0.05 in1.3 mm
09:37 AM 38.5°F3.6°C 34.7°F1.5°C 86% 8.0 mph SW12.9 kmh SW 15.0 mph24.1 kmh 29.22 in989.5 mb 0.00 in0.0 mm 0.00 in0.0 mm 0.05 in1.3 mm
09:32 AM 38.3°F3.5°C 34.5°F1.4°C 86% 14.0 mph WSW22.5 kmh WSW 16.0 mph25.7 kmh 29.22 in989.5 mb 0.00 in0.0 mm 0.00 in0.0 mm 0.05 in1.3 mm
09:27 AM 38.2°F3.4°C 34.4°F1.3°C 86% 6.0 mph WSW9.7 kmh WSW 16.0 mph25.7 kmh 29.21 in989.2 mb 0.00 in0.0 mm 0.00 in0.0 mm 0.05 in1.3 mm
09:22 AM 38.1°F3.4°C 34.3°F1.3°C 86% 9.0 mph WSW14.5 kmh WSW 16.0 mph25.7 kmh 29.21 in989.2 mb 0.00 in0.0 mm 0.00 in0.0 mm 0.05 in1.3 mm
09:17 AM 38.0°F3.3°C 34.5°F1.4°C 87% 7.0 mph WSW11.3 kmh WSW 16.0 mph25.7 kmh 29.21 in989.2 mb 0.00 in0.0 mm 0.00 in0.0 mm 0.05 in1.3 mm
09:12 AM 37.7°F3.2°C 34.2°F1.2°C 87% 8.0 mph SW12.9 kmh SW 15.0 mph24.1 kmh 29.20 in988.8 mb 0.00 in0.0 mm 0.00 in0.0 mm 0.05 in1.3 mm
09:07 AM 37.4°F3.0°C 33.9°F1.1°C 87% 8.0 mph WSW12.9 kmh WSW 15.0 mph24.1 kmh 29.20 in988.8 mb 0.00 in0.0 mm 0.00 in0.0 mm 0.05 in1.3 mm
09:02 AM 37.3°F2.9°C 33.8°F1.0°C 87% 8.0 mph WSW12.9 kmh WSW 15.0 mph24.1 kmh 29.20 in988.8 mb 0.00 in0.0 mm 0.00 in0.0 mm 0.05 in1.3 mm
08:57 AM 37.1°F2.8°C 33.6°F0.9°C 87% 14.0 mph W22.5 kmh W 15.0 mph24.1 kmh 29.20 in988.8 mb 0.00 in0.0 mm 0.00 in0.0 mm 0.05 in1.3 mm
08:52 AM 36.9°F2.7°C 33.4°F0.8°C 87% 11.0 mph W17.7 kmh W 15.0 mph24.1 kmh 29.19 in988.5 mb 0.00 in0.0 mm 0.00 in0.0 mm 0.05 in1.3 mm
08:47 AM 36.8°F2.7°C 33.3°F0.7°C 87% 8.0 mph WSW12.9 kmh WSW 16.0 mph25.7 kmh 29.19 in988.5 mb 0.00 in0.0 mm 0.00 in0.0 mm 0.05 in1.3 mm
08:42 AM 36.8°F2.7°C 33.3°F0.7°C 87% 10.0 mph WSW16.1 kmh WSW 16.0 mph25.7 kmh 29.19 in988.5 mb 0.00 in0.0 mm 0.00 in0.0 mm 0.05 in1.3 mm
08:37 AM 36.6°F2.6°C 33.1°F0.6°C 87% 6.0 mph SW9.7 kmh SW 18.0 mph29.0 kmh 29.18 in988.1 mb 0.00 in0.0 mm 0.00 in0.0 mm 0.05 in1.3 mm
08:32 AM 36.8°F2.7°C 33.3°F0.7°C 87% 7.0 mph WSW11.3 kmh WSW 18.0 mph29.0 kmh 29.18 in988.1 mb 0.00 in0.0 mm 0.00 in0.0 mm 0.05 in1.3 mm
08:27 AM 36.8°F2.7°C 33.3°F0.7°C 87% 11.0 mph SW17.7 kmh SW 18.0 mph29.0 kmh 29.18 in988.1 mb 0.00 in0.0 mm 0.00 in0.0 mm 0.05 in1.3 mm
08:22 AM 36.9°F2.7°C 33.4°F0.8°C 87% 7.0 mph WSW11.3 kmh WSW 18.0 mph29.0 kmh 29.17 in987.8 mb 0.00 in0.0 mm 0.00 in0.0 mm 0.05 in1.3 mm
08:17 AM 36.9°F2.7°C 33.4°F0.8°C 87% 10.0 mph SW16.1 kmh SW 17.0 mph27.4 kmh 29.17 in987.8 mb 0.00 in0.0 mm 0.00 in0.0 mm 0.05 in1.3 mm
08:12 AM 36.7°F2.6°C 33.2°F0.7°C 87% 9.0 mph WSW14.5 kmh WSW 17.0 mph27.4 kmh 29.17 in987.8 mb 0.00 in0.0 mm 0.00 in0.0 mm 0.05 in1.3 mm
08:07 AM 36.6°F2.6°C 33.1°F0.6°C 87% 12.0 mph WSW19.3 kmh WSW 16.0 mph25.7 kmh 29.16 in987.5 mb 0.00 in0.0 mm 0.00 in0.0 mm 0.05 in1.3 mm
08:02 AM 36.6°F2.6°C 33.1°F0.6°C 87% 6.0 mph WSW9.7 kmh WSW 16.0 mph25.7 kmh 29.16 in987.5 mb 0.00 in0.0 mm 0.00 in0.0 mm 0.05 in1.3 mm
07:57 AM 36.7°F2.6°C 32.9°F0.5°C 86% 7.0 mph SW11.3 kmh SW 15.0 mph24.1 kmh 29.16 in987.5 mb 0.00 in0.0 mm 0.00 in0.0 mm 0.05 in1.3 mm
07:52 AM 36.8°F2.7°C 33.0°F0.6°C 86% 8.0 mph W12.9 kmh W 17.0 mph27.4 kmh 29.15 in987.1 mb 0.00 in0.0 mm 0.00 in0.0 mm 0.05 in1.3 mm
07:47 AM 36.9°F2.7°C 33.1°F0.6°C 86% 7.0 mph WSW11.3 kmh WSW 17.0 mph27.4 kmh 29.15 in987.1 mb 0.00 in0.0 mm 0.00 in0.0 mm 0.05 in1.3 mm
07:42 AM 37.0°F2.8°C 32.9°F0.5°C 85% 17.0 mph WSW27.4 kmh WSW 19.0 mph30.6 kmh 29.14 in986.8 mb 0.00 in0.0 mm 0.00 in0.0 mm 0.05 in1.3 mm
07:37 AM 37.2°F2.9°C 33.1°F0.6°C 85% 8.0 mph SW12.9 kmh SW 19.0 mph30.6 kmh 29.14 in986.8 mb 0.00 in0.0 mm 0.00 in0.0 mm 0.05 in1.3 mm
07:32 AM 37.3°F2.9°C 33.2°F0.7°C 85% 10.0 mph WSW16.1 kmh WSW 20.0 mph32.2 kmh 29.13 in986.5 mb 0.00 in0.0 mm 0.00 in0.0 mm 0.05 in1.3 mm
07:27 AM 37.3°F2.9°C 33.2°F0.7°C 85% 7.0 mph WSW11.3 kmh WSW 20.0 mph32.2 kmh 29.13 in986.5 mb 0.00 in0.0 mm 0.00 in0.0 mm 0.05 in1.3 mm
07:22 AM 37.2°F2.9°C 33.4°F0.8°C 86% 9.0 mph WSW14.5 kmh WSW 20.0 mph32.2 kmh 29.12 in986.1 mb 0.00 in0.0 mm 0.00 in0.0 mm 0.05 in1.3 mm
07:17 AM 37.0°F2.8°C 33.2°F0.7°C 86% 16.0 mph SW25.7 kmh SW 20.0 mph32.2 kmh 29.12 in986.1 mb 0.00 in0.0 mm 0.00 in0.0 mm 0.05 in1.3 mm
07:12 AM 36.9°F2.7°C 33.1°F0.6°C 86% 6.0 mph WSW9.7 kmh WSW 18.0 mph29.0 kmh 29.12 in986.1 mb 0.00 in0.0 mm 0.00 in0.0 mm 0.05 in1.3 mm
07:07 AM 36.9°F2.7°C 33.1°F0.6°C 86% 7.0 mph WSW11.3 kmh WSW 18.0 mph29.0 kmh 29.12 in986.1 mb 0.00 in0.0 mm 0.00 in0.0 mm 0.05 in1.3 mm
07:02 AM 36.7°F2.6°C 32.9°F0.5°C 86% 7.0 mph W11.3 kmh W 18.0 mph29.0 kmh 29.11 in985.8 mb 0.00 in0.0 mm 0.00 in0.0 mm 0.05 in1.3 mm
06:57 AM 36.6°F2.6°C 33.1°F0.6°C 87% 8.0 mph W12.9 kmh W 18.0 mph29.0 kmh 29.11 in985.8 mb 0.00 in0.0 mm 0.00 in0.0 mm 0.05 in1.3 mm
06:52 AM 36.6°F2.6°C 32.8°F0.4°C 86% 10.0 mph W16.1 kmh W 18.0 mph29.0 kmh 29.11 in985.8 mb 0.00 in0.0 mm 0.00 in0.0 mm 0.05 in1.3 mm
06:47 AM 36.6°F2.6°C 33.1°F0.6°C 87% 8.0 mph WSW12.9 kmh WSW 18.0 mph29.0 kmh 29.11 in985.8 mb 0.00 in0.0 mm 0.00 in0.0 mm 0.05 in1.3 mm
06:42 AM 36.5°F2.5°C 33.0°F0.6°C 87% 8.0 mph WSW12.9 kmh WSW 18.0 mph29.0 kmh 29.11 in985.8 mb 0.00 in0.0 mm 0.00 in0.0 mm 0.05 in1.3 mm
06:37 AM 36.4°F2.4°C 32.9°F0.5°C 87% 13.0 mph WSW20.9 kmh WSW 19.0 mph30.6 kmh 29.10 in985.4 mb 0.00 in0.0 mm 0.00 in0.0 mm 0.05 in1.3 mm
06:32 AM 36.5°F2.5°C 33.0°F0.6°C 87% 5.0 mph SW8.0 kmh SW 19.0 mph30.6 kmh 29.10 in985.4 mb 0.00 in0.0 mm 0.00 in0.0 mm 0.05 in1.3 mm
06:27 AM 36.4°F2.4°C 32.9°F0.5°C 87% 11.0 mph WSW17.7 kmh WSW 19.0 mph30.6 kmh 29.10 in985.4 mb 0.00 in0.0 mm 0.00 in0.0 mm 0.05 in1.3 mm
06:22 AM 36.3°F2.4°C 32.8°F0.4°C 87% 7.0 mph WSW11.3 kmh WSW 19.0 mph30.6 kmh 29.09 in985.1 mb 0.00 in0.0 mm 0.00 in0.0 mm 0.05 in1.3 mm
06:17 AM 36.2°F2.3°C 33.0°F0.6°C 88% 12.0 mph W19.3 kmh W 16.0 mph25.7 kmh 29.09 in985.1 mb 0.00 in0.0 mm 0.00 in0.0 mm 0.05 in1.3 mm
06:12 AM 36.2°F2.3°C 33.0°F0.6°C 88% 15.0 mph WSW24.1 kmh WSW 16.0 mph25.7 kmh 29.09 in985.1 mb 0.00 in0.0 mm 0.00 in0.0 mm 0.05 in1.3 mm
06:07 AM 36.2°F2.3°C 32.7°F0.4°C 87% 7.0 mph W11.3 kmh W 16.0 mph25.7 kmh 29.08 in984.8 mb 0.00 in0.0 mm 0.00 in0.0 mm 0.05 in1.3 mm
06:02 AM 36.3°F2.4°C 32.8°F0.4°C 87% 8.0 mph SW12.9 kmh SW 18.0 mph29.0 kmh 29.08 in984.8 mb 0.00 in0.0 mm 0.00 in0.0 mm 0.05 in1.3 mm
05:57 AM 36.3°F2.4°C 32.8°F0.4°C 87% 10.0 mph WSW16.1 kmh WSW 18.0 mph29.0 kmh 29.08 in984.8 mb 0.00 in0.0 mm 0.00 in0.0 mm 0.05 in1.3 mm
05:52 AM 36.3°F2.4°C 33.1°F0.6°C 88% 8.0 mph WSW12.9 kmh WSW 19.0 mph30.6 kmh 29.07 in984.4 mb 0.00 in0.0 mm 0.00 in0.0 mm 0.05 in1.3 mm
05:47 AM 36.4°F2.4°C 33.2°F0.7°C 88% 6.0 mph WSW9.7 kmh WSW 19.0 mph30.6 kmh 29.07 in984.4 mb 0.00 in0.0 mm 0.00 in0.0 mm 0.05 in1.3 mm
05:42 AM 36.3°F2.4°C 33.1°F0.6°C 88% 17.0 mph WSW27.4 kmh WSW 19.0 mph30.6 kmh 29.07 in984.4 mb 0.00 in0.0 mm 0.00 in0.0 mm 0.05 in1.3 mm
05:37 AM 36.2°F2.3°C 33.3°F0.7°C 89% 12.0 mph WSW19.3 kmh WSW 19.0 mph30.6 kmh 29.07 in984.4 mb 0.00 in0.0 mm 0.00 in0.0 mm 0.05 in1.3 mm
05:32 AM 36.0°F2.2°C 33.1°F0.6°C 89% 9.0 mph SW14.5 kmh SW 18.0 mph29.0 kmh 29.07 in984.4 mb 0.00 in0.0 mm 0.00 in0.0 mm 0.05 in1.3 mm
05:27 AM 36.0°F2.2°C 33.1°F0.6°C 89% 11.0 mph WSW17.7 kmh WSW 18.0 mph29.0 kmh 29.07 in984.4 mb 0.00 in0.0 mm 0.00 in0.0 mm 0.05 in1.3 mm
05:22 AM 36.0°F2.2°C 33.1°F0.6°C 89% 9.0 mph SW14.5 kmh SW 19.0 mph30.6 kmh 29.07 in984.4 mb 0.00 in0.0 mm 0.00 in0.0 mm 0.05 in1.3 mm
05:17 AM 36.0°F2.2°C 33.1°F0.6°C 89% 8.0 mph WSW12.9 kmh WSW 19.0 mph30.6 kmh 29.06 in984.1 mb 0.00 in0.0 mm 0.00 in0.0 mm 0.05 in1.3 mm
05:12 AM 36.0°F2.2°C 33.1°F0.6°C 89% 7.0 mph WSW11.3 kmh WSW 19.0 mph30.6 kmh 29.05 in983.7 mb 0.00 in0.0 mm 0.00 in0.0 mm 0.05 in1.3 mm
05:07 AM 36.0°F2.2°C 33.1°F0.6°C 89% 15.0 mph WSW24.1 kmh WSW 19.0 mph30.6 kmh 29.05 in983.7 mb 0.00 in0.0 mm 0.00 in0.0 mm 0.05 in1.3 mm
05:02 AM 36.0°F2.2°C 33.1°F0.6°C 89% 8.0 mph WSW12.9 kmh WSW 18.0 mph29.0 kmh 29.05 in983.7 mb 0.00 in0.0 mm 0.00 in0.0 mm 0.05 in1.3 mm
04:57 AM 36.1°F2.3°C 33.2°F0.7°C 89% 11.0 mph WSW17.7 kmh WSW 18.0 mph29.0 kmh 29.05 in983.7 mb 0.00 in0.0 mm 0.00 in0.0 mm 0.05 in1.3 mm
04:52 AM 36.1°F2.3°C 33.2°F0.7°C 89% 8.0 mph WSW12.9 kmh WSW 16.0 mph25.7 kmh 29.05 in983.7 mb 0.00 in0.0 mm 0.00 in0.0 mm 0.05 in1.3 mm
04:47 AM 36.3°F2.4°C 33.4°F0.8°C 89% 6.0 mph WSW9.7 kmh WSW 20.0 mph32.2 kmh 29.05 in983.7 mb 0.00 in0.0 mm 0.00 in0.0 mm 0.05 in1.3 mm
04:42 AM 36.5°F2.5°C 33.6°F0.9°C 89% 6.0 mph WSW9.7 kmh WSW 20.0 mph32.2 kmh 29.04 in983.4 mb 0.00 in0.0 mm 0.00 in0.0 mm 0.05 in1.3 mm
04:37 AM 36.6°F2.6°C 33.7°F0.9°C 89% 11.0 mph WSW17.7 kmh WSW 21.0 mph33.8 kmh 29.04 in983.4 mb 0.00 in0.0 mm 0.00 in0.0 mm 0.05 in1.3 mm
04:32 AM 36.7°F2.6°C 33.8°F1.0°C 89% 13.0 mph SW20.9 kmh SW 21.0 mph33.8 kmh 29.04 in983.4 mb 0.00 in0.0 mm 0.00 in0.0 mm 0.05 in1.3 mm
04:27 AM 36.9°F2.7°C 34.0°F1.1°C 89% 9.0 mph WSW14.5 kmh WSW 23.0 mph37.0 kmh 29.04 in983.4 mb 0.00 in0.0 mm 0.00 in0.0 mm 0.05 in1.3 mm
04:22 AM 37.0°F2.8°C 34.1°F1.2°C 89% 13.0 mph W20.9 kmh W 23.0 mph37.0 kmh 29.03 in983.1 mb 0.00 in0.0 mm 0.00 in0.0 mm 0.05 in1.3 mm
04:17 AM 37.1°F2.8°C 34.2°F1.2°C 89% 15.0 mph W24.1 kmh W 23.0 mph37.0 kmh 29.03 in983.1 mb 0.00 in0.0 mm 0.00 in0.0 mm 0.05 in1.3 mm
04:12 AM 37.0°F2.8°C 34.1°F1.2°C 89% 17.0 mph SW27.4 kmh SW 23.0 mph37.0 kmh 29.02 in982.7 mb 0.00 in0.0 mm 0.00 in0.0 mm 0.05 in1.3 mm
04:07 AM 37.1°F2.8°C 34.2°F1.2°C 89% 8.0 mph WSW12.9 kmh WSW 21.0 mph33.8 kmh 29.02 in982.7 mb 0.00 in0.0 mm 0.00 in0.0 mm 0.05 in1.3 mm
04:02 AM 37.3°F2.9°C 34.1°F1.2°C 88% 14.0 mph WSW22.5 kmh WSW 23.0 mph37.0 kmh 29.02 in982.7 mb 0.00 in0.0 mm 0.00 in0.0 mm 0.05 in1.3 mm
03:57 AM 37.5°F3.1°C 34.3°F1.3°C 88% 12.0 mph W19.3 kmh W 23.0 mph37.0 kmh 29.02 in982.7 mb 0.00 in0.0 mm 0.00 in0.0 mm 0.05 in1.3 mm
03:52 AM 37.7°F3.2°C 34.8°F1.6°C 89% 11.0 mph WSW17.7 kmh WSW 24.0 mph38.6 kmh 29.02 in982.7 mb 0.00 in0.0 mm 0.00 in0.0 mm 0.05 in1.3 mm
03:47 AM 37.7°F3.2°C 34.8°F1.6°C 89% 12.0 mph SW19.3 kmh SW 24.0 mph38.6 kmh 29.02 in982.7 mb 0.00 in0.0 mm 0.00 in0.0 mm 0.05 in1.3 mm
03:42 AM 37.7°F3.2°C 34.8°F1.6°C 89% 11.0 mph SW17.7 kmh SW 28.0 mph45.1 kmh 29.02 in982.7 mb 0.00 in0.0 mm 0.00 in0.0 mm 0.05 in1.3 mm
03:37 AM 37.8°F3.2°C 34.9°F1.6°C 89% 15.0 mph WSW24.1 kmh WSW 28.0 mph45.1 kmh 29.01 in982.4 mb 0.00 in0.0 mm 0.00 in0.0 mm 0.05 in1.3 mm
03:32 AM 37.7°F3.2°C 34.8°F1.6°C 89% 11.0 mph WSW17.7 kmh WSW 28.0 mph45.1 kmh 29.01 in982.4 mb 0.00 in0.0 mm 0.00 in0.0 mm 0.05 in1.3 mm
03:27 AM 37.8°F3.2°C 34.9°F1.6°C 89% 15.0 mph W24.1 kmh W 28.0 mph45.1 kmh 29.00 in982.1 mb 0.00 in0.0 mm 0.00 in0.0 mm 0.05 in1.3 mm
03:22 AM 37.7°F3.2°C 34.8°F1.6°C 89% 20.0 mph W32.2 kmh W 23.0 mph37.0 kmh 29.00 in982.1 mb 0.00 in0.0 mm 0.00 in0.0 mm 0.05 in1.3 mm
03:17 AM 37.8°F3.2°C 34.9°F1.6°C 89% 8.0 mph WNW12.9 kmh WNW 22.0 mph35.4 kmh 28.99 in981.7 mb 0.00 in0.0 mm 0.00 in0.0 mm 0.05 in1.3 mm
03:12 AM 37.9°F3.3°C 35.0°F1.7°C 89% 13.0 mph WSW20.9 kmh WSW 21.0 mph33.8 kmh 28.99 in981.7 mb 0.00 in0.0 mm 0.00 in0.0 mm 0.05 in1.3 mm
03:07 AM 38.0°F3.3°C 35.1°F1.7°C 89% 16.0 mph WSW25.7 kmh WSW 27.0 mph43.5 kmh 29.00 in982.1 mb 0.00 in0.0 mm 0.00 in0.0 mm 0.05 in1.3 mm
03:02 AM 38.0°F3.3°C 35.1°F1.7°C 89% 10.0 mph WSW16.1 kmh WSW 27.0 mph43.5 kmh 29.00 in982.1 mb 0.00 in0.0 mm 0.00 in0.0 mm 0.05 in1.3 mm
02:57 AM 38.1°F3.4°C 35.1°F1.7°C 89% 11.0 mph WSW17.7 kmh WSW 27.0 mph43.5 kmh 29.00 in982.1 mb 0.00 in0.0 mm 0.00 in0.0 mm 0.05 in1.3 mm
02:52 AM 38.2°F3.4°C 35.2°F1.8°C 89% 21.0 mph WSW33.8 kmh WSW 27.0 mph43.5 kmh 29.00 in982.1 mb 0.00 in0.0 mm 0.00 in0.0 mm 0.05 in1.3 mm
02:47 AM 38.4°F3.6°C 35.4°F1.9°C 89% 8.0 mph WSW12.9 kmh WSW 24.0 mph38.6 kmh 28.99 in981.7 mb 0.00 in0.0 mm 0.00 in0.0 mm 0.05 in1.3 mm
02:42 AM 38.9°F3.8°C 35.9°F2.2°C 89% 17.0 mph WSW27.4 kmh WSW 24.0 mph38.6 kmh 28.99 in981.7 mb 0.00 in0.0 mm 0.00 in0.0 mm 0.05 in1.3 mm
02:37 AM 39.6°F4.2°C 36.3°F2.4°C 88% 14.0 mph SW22.5 kmh SW 24.0 mph38.6 kmh 28.99 in981.7 mb 0.00 in0.0 mm 0.00 in0.0 mm 0.05 in1.3 mm
02:32 AM 40.0°F4.4°C 36.7°F2.6°C 88% 20.0 mph WSW32.2 kmh WSW 23.0 mph37.0 kmh 28.98 in981.4 mb 0.00 in0.0 mm 0.00 in0.0 mm 0.05 in1.3 mm
02:27 AM 39.8°F4.3°C 36.5°F2.5°C 88% 10.0 mph SW16.1 kmh SW 21.0 mph33.8 kmh 28.98 in981.4 mb 0.00 in0.0 mm 0.00 in0.0 mm 0.05 in1.3 mm
02:22 AM 39.9°F4.4°C 36.6°F2.6°C 88% 14.0 mph WSW22.5 kmh WSW 20.0 mph32.2 kmh 28.98 in981.4 mb 0.00 in0.0 mm 0.00 in0.0 mm 0.05 in1.3 mm
02:17 AM 40.1°F4.5°C 37.1°F2.8°C 89% 12.0 mph W19.3 kmh W 20.0 mph32.2 kmh 28.98 in981.4 mb 0.00 in0.0 mm 0.00 in0.0 mm 0.05 in1.3 mm
02:12 AM 40.1°F4.5°C 37.1°F2.8°C 89% 16.0 mph SW25.7 kmh SW 20.0 mph32.2 kmh 28.98 in981.4 mb 0.00 in0.0 mm 0.00 in0.0 mm 0.05 in1.3 mm
02:07 AM 40.1°F4.5°C 37.4°F3.0°C 90% 11.0 mph WSW17.7 kmh WSW 21.0 mph33.8 kmh 28.98 in981.4 mb 0.00 in0.0 mm 0.00 in0.0 mm 0.05 in1.3 mm
02:02 AM 40.2°F4.6°C 37.5°F3.1°C 90% 8.0 mph SW12.9 kmh SW 21.0 mph33.8 kmh 28.98 in981.4 mb 0.00 in0.0 mm 0.00 in0.0 mm 0.05 in1.3 mm
01:57 AM 40.3°F4.6°C 37.9°F3.3°C 91% 6.0 mph WSW9.7 kmh WSW 21.0 mph33.8 kmh 28.98 in981.4 mb 0.00 in0.0 mm 0.00 in0.0 mm 0.05 in1.3 mm
01:52 AM 40.2°F4.6°C 37.8°F3.2°C 91% 16.0 mph WSW25.7 kmh WSW 21.0 mph33.8 kmh 28.98 in981.4 mb 0.00 in0.0 mm 0.00 in0.0 mm 0.05 in1.3 mm
01:47 AM 40.2°F4.6°C 37.8°F3.2°C 91% 7.0 mph WSW11.3 kmh WSW 14.0 mph22.5 kmh 28.98 in981.4 mb 0.00 in0.0 mm 0.00 in0.0 mm 0.05 in1.3 mm
01:42 AM 40.2°F4.6°C 37.8°F3.2°C 91% 7.0 mph WSW11.3 kmh WSW 21.0 mph33.8 kmh 28.98 in981.4 mb 0.00 in0.0 mm 0.00 in0.0 mm 0.05 in1.3 mm
01:37 AM 40.1°F4.5°C 38.0°F3.3°C 92% 8.0 mph WSW12.9 kmh WSW 21.0 mph33.8 kmh 28.97 in981.0 mb 0.00 in0.0 mm 0.00 in0.0 mm 0.05 in1.3 mm
01:32 AM 39.8°F4.3°C 37.7°F3.2°C 92% 8.0 mph SW12.9 kmh SW 23.0 mph37.0 kmh 28.98 in981.4 mb 0.00 in0.0 mm 0.00 in0.0 mm 0.05 in1.3 mm
01:27 AM 39.8°F4.3°C 37.7°F3.2°C 92% 9.0 mph W14.5 kmh W 23.0 mph37.0 kmh 28.97 in981.0 mb 0.00 in0.0 mm 0.00 in0.0 mm 0.05 in1.3 mm
01:22 AM 40.4°F4.7°C 38.5°F3.6°C 93% 11.0 mph W17.7 kmh W 23.0 mph37.0 kmh 28.98 in981.4 mb 0.00 in0.0 mm 0.00 in0.0 mm 0.05 in1.3 mm
01:17 AM 40.7°F4.8°C 39.1°F3.9°C 94% 9.0 mph WSW14.5 kmh WSW 23.0 mph37.0 kmh 28.98 in981.4 mb 0.00 in0.0 mm 0.00 in0.0 mm 0.05 in1.3 mm
01:12 AM 40.6°F4.8°C 39.0°F3.9°C 94% 12.0 mph WSW19.3 kmh WSW 21.0 mph33.8 kmh 28.96 in980.7 mb 0.00 in0.0 mm 0.00 in0.0 mm 0.05 in1.3 mm
01:07 AM 40.4°F4.7°C 38.8°F3.8°C 94% 12.0 mph SW19.3 kmh SW 16.0 mph25.7 kmh 28.97 in981.0 mb 0.00 in0.0 mm 0.00 in0.0 mm 0.05 in1.3 mm
01:02 AM 40.1°F4.5°C 38.5°F3.6°C 94% 8.0 mph SSW12.9 kmh SSW 16.0 mph25.7 kmh 28.97 in981.0 mb 0.00 in0.0 mm 0.00 in0.0 mm 0.05 in1.3 mm
12:57 AM 39.8°F4.3°C 38.2°F3.4°C 94% 5.0 mph SSW8.0 kmh SSW 10.0 mph16.1 kmh 28.97 in981.0 mb 0.00 in0.0 mm 0.00 in0.0 mm 0.05 in1.3 mm
12:52 AM 39.7°F4.3°C 38.1°F3.4°C 94% 4.0 mph SW6.4 kmh SW 7.0 mph11.3 kmh 28.97 in981.0 mb 0.00 in0.0 mm 0.00 in0.0 mm 0.05 in1.3 mm
12:47 AM 39.6°F4.2°C 38.0°F3.3°C 94% 2.0 mph WSW3.2 kmh WSW 12.0 mph19.3 kmh 28.97 in981.0 mb 0.00 in0.0 mm 0.00 in0.0 mm 0.05 in1.3 mm
12:42 AM 39.6°F4.2°C 38.0°F3.3°C 94% 4.0 mph WSW6.4 kmh WSW 12.0 mph19.3 kmh 28.97 in981.0 mb 0.00 in0.0 mm 0.00 in0.0 mm 0.05 in1.3 mm
12:37 AM 39.7°F4.3°C 38.1°F3.4°C 94% 3.0 mph SW4.8 kmh SW 12.0 mph19.3 kmh 28.97 in981.0 mb 0.00 in0.0 mm 0.00 in0.0 mm 0.05 in1.3 mm
12:32 AM 39.7°F4.3°C 38.1°F3.4°C 94% 4.0 mph S6.4 kmh S 12.0 mph19.3 kmh 28.97 in981.0 mb 0.00 in0.0 mm 0.00 in0.0 mm 0.05 in1.3 mm
12:27 AM 39.7°F4.3°C 38.1°F3.4°C 94% 4.0 mph S6.4 kmh S 10.0 mph16.1 kmh 28.98 in981.4 mb 0.00 in0.0 mm 0.00 in0.0 mm 0.05 in1.3 mm
12:22 AM 39.7°F4.3°C 38.1°F3.4°C 94% 8.0 mph SSW12.9 kmh SSW 12.0 mph19.3 kmh 28.98 in981.4 mb 0.00 in0.0 mm 0.00 in0.0 mm 0.05 in1.3 mm
12:17 AM 39.7°F4.3°C 38.1°F3.4°C 94% 7.0 mph S11.3 kmh S 12.0 mph19.3 kmh 28.97 in981.0 mb 0.00 in0.0 mm 0.00 in0.0 mm 0.05 in1.3 mm
12:12 AM 39.6°F4.2°C 38.0°F3.3°C 94% 6.0 mph S9.7 kmh S 12.0 mph19.3 kmh 28.98 in981.4 mb 0.00 in0.0 mm 0.00 in0.0 mm 0.05 in1.3 mm
12:07 AM 39.3°F4.1°C 37.7°F3.2°C 94% 5.0 mph SW8.0 kmh SW 12.0 mph19.3 kmh 29.00 in982.1 mb 0.04 in1.0 mm 0.00 in0.0 mm 0.05 in1.3 mm
12:02 AM 39.2°F4.0°C 37.6°F3.1°C 94% 5.0 mph WSW8.0 kmh WSW 8.0 mph12.9 kmh 29.00 in982.1 mb 0.05 in1.3 mm 1.50 in38.1 mm 0.05 in1.3 mm